Time;durP1;ratioP1;P1;durP2;ratioP2;P2;SDS_P1;SDS_P2;PMS_P1;PMS_P2;Temp;Humidity;BMP_temperature;BMP_pressure;BME280_temperature;BME280_humidity;BME280_pressure;Samples;Min_cycle;Max_cycle;Signal;HPM_P1;HPM_P2
2022/09/19 00:00:36;;;;;;;4.20;2.08;;;;;;;;;;6320804;28;20052;-75
2022/09/19 00:03:38;;;;;;;6.82;2.67;;;;;;;;;;6317486;27;20048;-75
2022/09/19 00:06:42;;;;;;;3.90;2.10;;;;;;;;;;6315750;28;20366;-74
2022/09/19 00:09:44;;;;;;;3.33;1.90;;;;;;;;;;6318734;27;20093;-76
2022/09/19 00:12:46;;;;;;;3.67;1.40;;;;;;;;;;6321766;28;20048;-77
2022/09/19 00:15:49;;;;;;;3.17;1.63;;;;;;;;;;6319419;28;20039;-73
2022/09/19 00:18:52;;;;;;;2.63;1.60;;;;;;;;;;6319780;28;20990;-73
2022/09/19 00:21:57;;;;;;;4.10;1.55;;;;;;;;;;6315380;28;20059;-72
2022/09/19 00:24:58;;;;;;;2.65;1.40;;;;;;;;;;6318706;28;20286;-75
2022/09/19 00:27:59;;;;;;;5.38;1.52;;;;;;;;;;6320736;28;20097;-75
2022/09/19 00:31:01;;;;;;;5.65;1.50;;;;;;;;;;6316435;28;21237;-77
2022/09/19 00:34:06;;;;;;;4.20;1.50;;;;;;;;;;6319268;28;20048;-77
2022/09/19 00:37:09;;;;;;;3.75;1.42;;;;;;;;;;6314602;28;20141;-75
2022/09/19 00:40:11;;;;;;;2.95;1.30;;;;;;;;;;6317239;28;20044;-76
2022/09/19 00:43:14;;;;;;;3.60;1.55;;;;;;;;;;6321643;28;20243;-73
2022/09/19 00:46:17;;;;;;;4.75;1.42;;;;;;;;;;6313215;28;20353;-75
2022/09/19 00:49:19;;;;;;;4.50;1.45;;;;;;;;;;6324694;28;20111;-77
2022/09/19 00:52:27;;;;;;;3.28;1.38;;;;;;;;;;6317405;28;20041;-76
2022/09/19 00:55:29;;;;;;;3.65;1.33;;;;;;;;;;6322481;28;20315;-83
2022/09/19 00:58:32;;;;;;;3.05;1.30;;;;;;;;;;6321705;28;20052;-84
2022/09/19 01:01:34;;;;;;;4.72;1.50;;;;;;;;;;6323962;28;20094;-77
2022/09/19 01:04:36;;;;;;;2.17;1.10;;;;;;;;;;6322308;28;20051;-77
2022/09/19 01:07:46;;;;;;;2.67;1.20;;;;;;;;;;6327014;27;20060;-80
2022/09/19 01:11:02;;;;;;;4.57;1.30;;;;;;;;;;6324935;28;20063;-74
2022/09/19 01:14:08;;;;;;;2.22;1.42;;;;;;;;;;6320803;28;20059;-76
2022/09/19 01:17:16;;;;;;;4.65;2.28;;;;;;;;;;6322258;28;20224;-76
2022/09/19 01:20:46;;;;;;;3.97;1.50;;;;;;;;;;6322066;28;20051;-74
2022/09/19 01:24:28;;;;;;;3.47;1.52;;;;;;;;;;6320362;28;20051;-75
2022/09/19 01:27:56;;;;;;;3.55;1.50;;;;;;;;;;6322531;28;20041;-74
2022/09/19 01:31:19;;;;;;;2.30;1.15;;;;;;;;;;6323178;28;21347;-77
2022/09/19 01:34:24;;;;;;;2.15;1.10;;;;;;;;;;6317968;28;20062;-76
2022/09/19 01:37:30;;;;;;;8.52;1.50;;;;;;;;;;6316831;28;20059;-75
2022/09/19 01:40:32;;;;;;;1.75;1.00;;;;;;;;;;6317456;28;20102;-76
2022/09/19 01:43:35;;;;;;;3.47;1.00;;;;;;;;;;6316677;28;20086;-76
2022/09/19 01:46:48;;;;;;;5.72;1.30;;;;;;;;;;6321382;28;20133;-77
2022/09/19 01:49:53;;;;;;;2.53;0.90;;;;;;;;;;6322262;28;20052;-75
2022/09/19 01:53:01;;;;;;;2.35;1.30;;;;;;;;;;6317332;28;20599;-76
2022/09/19 01:56:08;;;;;;;4.13;1.20;;;;;;;;;;6317653;28;20048;-76
2022/09/19 01:59:20;;;;;;;3.90;1.40;;;;;;;;;;6316492;28;20056;-74
2022/09/19 02:02:31;;;;;;;1.58;1.13;;;;;;;;;;6317845;28;20047;-74
2022/09/19 02:05:37;;;;;;;2.38;1.20;;;;;;;;;;6316505;28;20044;-76
2022/09/19 02:08:46;;;;;;;3.17;1.10;;;;;;;;;;6315495;28;20236;-76
2022/09/19 02:11:47;;;;;;;1.90;0.80;;;;;;;;;;6319335;28;20062;-75
2022/09/19 02:14:54;;;;;;;4.40;1.15;;;;;;;;;;6316132;28;20339;-75
2022/09/19 02:17:57;;;;;;;3.50;0.90;;;;;;;;;;6319735;28;20058;-75
2022/09/19 02:21:03;;;;;;;3.17;1.30;;;;;;;;;;6320754;28;20052;-75
2022/09/19 02:24:07;;;;;;;3.08;1.23;;;;;;;;;;6321775;28;20283;-75
2022/09/19 02:27:17;;;;;;;1.83;0.88;;;;;;;;;;6318528;28;20094;-75
2022/09/19 02:30:20;;;;;;;2.33;1.38;;;;;;;;;;6325161;28;20055;-75
2022/09/19 02:33:22;;;;;;;1.98;1.10;;;;;;;;;;6321473;28;20052;-76
2022/09/19 02:36:30;;;;;;;6.00;1.13;;;;;;;;;;6321576;28;20212;-75
2022/09/19 02:39:36;;;;;;;4.97;0.93;;;;;;;;;;6317093;28;20102;-75
2022/09/19 02:42:47;;;;;;;2.05;1.00;;;;;;;;;;6320157;28;20044;-77
2022/09/19 02:45:52;;;;;;;2.15;0.88;;;;;;;;;;6321511;28;20274;-75
2022/09/19 02:48:55;;;;;;;1.63;1.00;;;;;;;;;;6322362;28;20059;-75
2022/09/19 02:51:59;;;;;;;1.92;1.00;;;;;;;;;;6315519;28;20356;-75
2022/09/19 02:55:04;;;;;;;2.17;0.82;;;;;;;;;;6318664;28;20064;-75
2022/09/19 02:58:06;;;;;;;2.70;0.82;;;;;;;;;;6316247;28;20055;-76
2022/09/19 03:01:15;;;;;;;3.37;1.10;;;;;;;;;;6317393;28;20089;-75
2022/09/19 03:04:19;;;;;;;1.75;1.15;;;;;;;;;;6315066;28;20231;-76
2022/09/19 03:07:27;;;;;;;2.22;0.80;;;;;;;;;;6316457;28;20067;-79
2022/09/19 03:10:31;;;;;;;1.65;0.80;;;;;;;;;;6314990;28;20067;-76
2022/09/19 03:13:33;;;;;;;4.85;0.95;;;;;;;;;;6320096;28;20392;-76
2022/09/19 03:16:40;;;;;;;5.40;1.33;;;;;;;;;;6321444;28;20235;-76
2022/09/19 03:19:46;;;;;;;2.30;1.00;;;;;;;;;;6322803;27;20346;-76
2022/09/19 03:22:49;;;;;;;3.78;1.02;;;;;;;;;;6319962;28;20052;-78
2022/09/19 03:25:50;;;;;;;1.90;1.03;;;;;;;;;;6319702;28;20242;-76
2022/09/19 03:28:54;;;;;;;2.50;1.10;;;;;;;;;;6320210;28;20113;-75
2022/09/19 03:31:57;;;;;;;1.50;0.82;;;;;;;;;;6324242;27;20327;-75
2022/09/19 03:34:58;;;;;;;2.72;1.10;;;;;;;;;;6316915;28;20324;-75
2022/09/19 03:38:01;;;;;;;3.78;1.67;;;;;;;;;;6322118;28;20044;-75
2022/09/19 03:41:02;;;;;;;3.08;1.00;;;;;;;;;;6324779;28;20059;-74
2022/09/19 03:44:05;;;;;;;1.40;1.10;;;;;;;;;;6322970;28;20262;-75
2022/09/19 03:47:09;;;;;;;1.45;0.93;;;;;;;;;;6323383;28;20075;-74
2022/09/19 03:50:11;;;;;;;2.80;0.95;;;;;;;;;;6321284;27;20066;-75
2022/09/19 03:53:13;;;;;;;5.40;1.20;;;;;;;;;;6325366;28;20076;-77
2022/09/19 03:56:16;;;;;;;5.60;1.30;;;;;;;;;;6320298;28;20331;-74
2022/09/19 03:59:18;;;;;;;1.88;0.98;;;;;;;;;;6317333;28;20393;-75
2022/09/19 04:02:21;;;;;;;2.42;1.20;;;;;;;;;;6316040;28;20059;-75
2022/09/19 04:05:23;;;;;;;;;;;;;;;;;;6318143;28;20060;-75
2022/09/19 04:08:25;;;;;;;4.20;1.08;;;;;;;;;;6319578;28;19930;-74
2022/09/19 04:11:27;;;;;;;2.90;1.25;;;;;;;;;;6316661;28;20047;-76
2022/09/19 04:14:29;;;;;;;2.83;1.10;;;;;;;;;;6318418;28;20389;-76
2022/09/19 04:17:32;;;;;;;3.25;1.02;;;;;;;;;;6315681;28;20048;-75
2022/09/19 04:20:34;;;;;;;3.47;1.30;;;;;;;;;;6320343;28;20040;-75
2022/09/19 04:23:35;;;;;;;2.05;1.10;;;;;;;;;;6320538;28;20044;-75
2022/09/19 04:26:37;;;;;;;2.20;1.15;;;;;;;;;;6320772;28;20056;-76
2022/09/19 04:29:40;;;;;;;4.40;2.03;;;;;;;;;;6317719;28;20343;-75
2022/09/19 04:32:43;;;;;;;4.25;1.48;;;;;;;;;;6321417;28;20063;-75
2022/09/19 04:35:45;;;;;;;4.80;1.15;;;;;;;;;;6321889;28;20335;-75
2022/09/19 04:38:48;;;;;;;2.40;1.15;;;;;;;;;;6325159;28;20208;-76
2022/09/19 04:41:52;;;;;;;3.42;1.17;;;;;;;;;;6321673;28;20051;-75
2022/09/19 04:44:54;;;;;;;2.13;1.25;;;;;;;;;;6321336;27;20358;-75
2022/09/19 04:47:58;;;;;;;2.78;1.25;;;;;;;;;;6320807;28;20115;-76
2022/09/19 04:51:01;;;;;;;2.53;1.02;;;;;;;;;;6319522;28;20048;-80
2022/09/19 04:54:05;;;;;;;4.75;1.45;;;;;;;;;;6317519;28;20044;-76
2022/09/19 04:57:07;;;;;;;5.68;1.35;;;;;;;;;;6319792;28;20048;-91
2022/09/19 05:00:10;;;;;;;4.90;1.60;;;;;;;;;;6319833;28;20339;-74
2022/09/19 05:03:15;;;;;;;10.50;1.40;;;;;;;;;;6316183;28;20102;-75
2022/09/19 05:06:17;;;;;;;10.23;1.67;;;;;;;;;;6316324;28;20579;-75
2022/09/19 05:09:22;;;;;;;15.25;1.42;;;;;;;;;;6317415;28;20111;-78
2022/09/19 05:12:23;;;;;;;3.55;1.85;;;;;;;;;;6318191;28;20049;-81
2022/09/19 05:15:25;;;;;;;5.43;1.52;;;;;;;;;;6316520;28;20274;-80
2022/09/19 05:18:32;;;;;;;18.10;2.35;;;;;;;;;;6321334;28;20044;-69
2022/09/19 05:21:33;;;;;;;12.15;1.70;;;;;;;;;;6316672;28;20056;-71
2022/09/19 05:24:37;;;;;;;4.13;1.30;;;;;;;;;;6316355;28;20044;-70
2022/09/19 05:27:39;;;;;;;3.30;1.30;;;;;;;;;;6315338;28;20331;-71
2022/09/19 05:30:49;;;;;;;4.20;1.83;;;;;;;;;;6315294;28;20115;-72
2022/09/19 05:33:52;;;;;;;6.88;1.42;;;;;;;;;;6314006;28;20044;-71
2022/09/19 05:36:54;;;;;;;3.83;1.37;;;;;;;;;;6319079;28;20053;-70
2022/09/19 05:39:56;;;;;;;6.28;1.48;;;;;;;;;;6320110;28;20629;-71
2022/09/19 05:43:01;;;;;;;6.20;1.60;;;;;;;;;;6317699;28;20279;-71
2022/09/19 05:46:04;;;;;;;10.02;2.20;;;;;;;;;;6318961;28;20060;-72
2022/09/19 05:49:07;;;;;;;5.90;1.37;;;;;;;;;;6314841;28;20063;-68
2022/09/19 05:55:25;;;;;;;6.13;1.50;;;;;;;;;;6314886;28;20558;-71
2022/09/19 05:58:27;;;;;;;8.85;2.00;;;;;;;;;;6317194;28;20234;-78
2022/09/19 06:01:29;;;;;;;8.40;1.75;;;;;;;;;;6318238;28;20052;-73
2022/09/19 06:04:32;;;;;;;4.75;1.80;;;;;;;;;;6316170;27;20039;-76
2022/09/19 06:07:34;;;;;;;7.18;1.65;;;;;;;;;;6313524;28;20044;-74
2022/09/19 06:10:38;;;;;;;10.30;1.83;;;;;;;;;;6317780;28;20039;-74
2022/09/19 06:16:59;;;;;;;7.97;1.70;;;;;;;;;;6315318;28;20048;-76
2022/09/19 06:20:02;;;;;;;8.60;1.95;;;;;;;;;;6315880;28;20044;-76
2022/09/19 06:23:06;;;;;;;13.77;2.35;;;;;;;;;;6316956;28;20051;-76
2022/09/19 06:26:08;;;;;;;10.95;2.15;;;;;;;;;;6314876;28;20058;-74
2022/09/19 06:29:09;;;;;;;11.35;2.35;;;;;;;;;;6317302;28;20340;-78
2022/09/19 06:32:11;;;;;;;9.30;1.80;;;;;;;;;;6315005;28;20048;-75
2022/09/19 06:35:14;;;;;;;20.50;3.15;;;;;;;;;;6317300;28;20797;-74
2022/09/19 06:38:16;;;;;;;9.65;2.05;;;;;;;;;;6317428;28;20060;-73
2022/09/19 06:41:18;;;;;;;6.60;1.65;;;;;;;;;;6315857;28;20219;-73
2022/09/19 06:44:21;;;;;;;5.90;1.48;;;;;;;;;;6316308;28;20059;-73
2022/09/19 06:47:23;;;;;;;;;;;;;;;;;;6321833;28;20056;-76
2022/09/19 06:50:27;;;;;;;5.18;1.30;;;;;;;;;;6320975;27;19924;-71
2022/09/19 06:53:28;;;;;;;4.03;1.80;;;;;;;;;;6317073;28;20106;-74
2022/09/19 06:56:30;;;;;;;5.07;1.27;;;;;;;;;;6318137;28;20051;-74
2022/09/19 06:59:31;;;;;;;12.02;1.40;;;;;;;;;;6317947;28;20044;-74
2022/09/19 07:02:33;;;;;;;4.63;1.80;;;;;;;;;;6318255;28;20052;-71
2022/09/19 07:05:38;;;;;;;11.27;3.08;;;;;;;;;;6322511;28;20062;-72
2022/09/19 07:08:40;;;;;;;7.30;1.83;;;;;;;;;;6322501;28;20232;-72
2022/09/19 07:11:43;;;;;;;5.30;1.52;;;;;;;;;;6320656;28;20062;-71
2022/09/19 07:14:45;;;;;;;4.45;1.42;;;;;;;;;;6319950;28;20327;-71
2022/09/19 07:17:46;;;;;;;9.85;2.00;;;;;;;;;;6320539;28;20036;-72
2022/09/19 07:20:49;;;;;;;6.68;1.42;;;;;;;;;;6321729;28;20174;-73
2022/09/19 07:23:51;;;;;;;5.22;1.50;;;;;;;;;;6321355;28;20117;-73
2022/09/19 07:26:53;;;;;;;7.40;1.80;;;;;;;;;;6324296;28;20072;-72
2022/09/19 07:29:56;;;;;;;8.40;1.80;;;;;;;;;;6318622;28;20079;-72
2022/09/19 07:32:58;;;;;;;3.40;1.27;;;;;;;;;;6324357;27;20216;-77
2022/09/19 07:36:01;;;;;;;2.60;1.20;;;;;;;;;;6317968;28;20320;-73
2022/09/19 07:39:03;;;;;;;;;;;;;;;;;;6321263;28;20064;-72
2022/09/19 07:42:05;;;;;;;8.68;1.50;;;;;;;;;;6316663;28;19924;-72
2022/09/19 07:45:07;;;;;;;3.92;1.60;;;;;;;;;;6316815;28;20051;-76
2022/09/19 07:48:09;;;;;;;21.65;2.53;;;;;;;;;;6316548;28;20282;-73
2022/09/19 07:51:12;;;;;;;7.05;1.30;;;;;;;;;;6319504;28;20044;-71
2022/09/19 07:54:13;;;;;;;6.65;1.30;;;;;;;;;;6315051;28;20059;-71
2022/09/19 07:57:15;;;;;;;3.38;1.23;;;;;;;;;;6318374;28;20234;-72
2022/09/19 08:00:17;;;;;;;6.38;1.13;;;;;;;;;;6318189;28;20258;-71
2022/09/19 08:03:21;;;;;;;3.77;1.37;;;;;;;;;;6322685;28;20047;-74
2022/09/19 08:06:23;;;;;;;;;;;;;;;;;;6323662;28;20063;-71
2022/09/19 08:09:25;;;;;;;7.47;1.00;;;;;;;;;;6321464;28;19928;-71
2022/09/19 08:12:27;;;;;;;4.15;1.10;;;;;;;;;;6317522;28;20044;-72
2022/09/19 08:15:30;;;;;;;13.32;1.73;;;;;;;;;;6318745;28;20351;-71
2022/09/19 08:18:31;;;;;;;5.53;1.10;;;;;;;;;;6321811;28;20060;-75
2022/09/19 08:21:34;;;;;;;7.10;1.00;;;;;;;;;;6319534;28;20048;-71
2022/09/19 08:24:36;;;;;;;2.35;0.75;;;;;;;;;;6315699;28;20052;-74
2022/09/19 08:27:38;;;;;;;1.98;1.15;;;;;;;;;;6315656;28;20052;-73
2022/09/19 08:30:41;;;;;;;4.97;1.40;;;;;;;;;;6316128;28;20116;-74
2022/09/19 08:33:43;;;;;;;4.03;1.35;;;;;;;;;;6316842;28;20094;-74
2022/09/19 08:36:46;;;;;;;3.83;1.30;;;;;;;;;;6313144;28;20056;-71
2022/09/19 08:43:09;;;;;;;6.68;1.15;;;;;;;;;;6314717;28;20241;-71
2022/09/19 08:46:16;;;;;;;6.85;1.30;;;;;;;;;;6316900;28;20268;-72
2022/09/19 08:49:20;;;;;;;4.88;1.33;;;;;;;;;;6317154;28;20179;-76
2022/09/19 08:52:31;;;;;;;5.55;1.20;;;;;;;;;;6317693;28;20067;-71
2022/09/19 08:55:35;;;;;;;4.95;1.63;;;;;;;;;;6317646;28;20129;-71
2022/09/19 08:58:43;;;;;;;2.08;1.00;;;;;;;;;;6318777;28;20102;-72
2022/09/19 09:01:44;;;;;;;2.67;1.08;;;;;;;;;;6318323;28;20094;-72
2022/09/19 09:04:46;;;;;;;2.95;1.10;;;;;;;;;;6314593;28;20342;-71
2022/09/19 09:07:54;;;;;;;5.57;1.55;;;;;;;;;;6314636;28;20051;-71
2022/09/19 09:11:00;;;;;;;2.75;0.98;;;;;;;;;;6317448;27;20059;-71
2022/09/19 09:14:07;;;;;;;2.08;1.00;;;;;;;;;;6314759;28;20115;-73
2022/09/19 09:17:18;;;;;;;10.82;1.35;;;;;;;;;;6316728;28;20118;-71
2022/09/19 09:20:28;;;;;;;2.15;1.13;;;;;;;;;;6317263;28;20097;-71
2022/09/19 09:23:34;;;;;;;5.85;1.00;;;;;;;;;;6315530;28;20094;-72
2022/09/19 09:26:40;;;;;;;3.65;1.02;;;;;;;;;;6316838;28;20040;-71
2022/09/19 09:29:44;;;;;;;13.73;1.73;;;;;;;;;;6316581;28;20078;-71
2022/09/19 09:32:49;;;;;;;4.28;0.95;;;;;;;;;;6315748;28;20282;-76
2022/09/19 09:35:55;;;;;;;6.47;1.20;;;;;;;;;;6315237;28;20281;-71
2022/09/19 09:39:01;;;;;;;5.40;1.00;;;;;;;;;;6314852;28;20047;-72
2022/09/19 09:42:05;;;;;;;4.00;0.90;;;;;;;;;;6313312;28;20323;-73
2022/09/19 09:45:14;;;;;;;3.40;1.38;;;;;;;;;;6314349;28;20044;-71
2022/09/19 09:48:21;;;;;;;3.25;1.13;;;;;;;;;;6316476;28;20055;-73
2022/09/19 09:51:30;;;;;;;4.60;0.90;;;;;;;;;;6313868;28;20046;-72
2022/09/19 09:58:06;;;;;;;1.58;0.75;;;;;;;;;;6313732;28;20177;-73
2022/09/19 10:04:50;;;;;;;3.17;1.17;;;;;;;;;;6316658;28;20060;-73
2022/09/19 10:07:58;;;;;;;5.93;1.08;;;;;;;;;;6315293;28;20102;-72
2022/09/19 10:11:06;;;;;;;1.85;1.02;;;;;;;;;;6315353;28;20291;-72
2022/09/19 10:14:14;;;;;;;2.42;0.90;;;;;;;;;;6314029;28;20098;-71
2022/09/19 10:17:19;;;;;;;2.85;1.00;;;;;;;;;;6317308;28;20074;-73
2022/09/19 10:20:25;;;;;;;2.03;1.15;;;;;;;;;;6314501;28;20052;-74
2022/09/19 10:23:30;;;;;;;3.42;0.88;;;;;;;;;;6323071;28;20115;-71
2022/09/19 10:26:33;;;;;;;3.50;0.80;;;;;;;;;;6315845;28;20048;-71
2022/09/19 10:29:35;;;;;;;6.80;1.35;;;;;;;;;;6325304;28;20052;-71
2022/09/19 10:32:37;;;;;;;2.20;1.00;;;;;;;;;;6318489;28;20319;-71
2022/09/19 10:35:40;;;;;;;6.63;1.17;;;;;;;;;;6321574;28;20135;-71
2022/09/19 10:38:58;;;;;;;7.30;1.13;;;;;;;;;;6319750;28;20060;-71
2022/09/19 10:42:02;;;;;;;1.00;0.80;;;;;;;;;;6317166;28;20060;-71
2022/09/19 10:45:16;;;;;;;2.13;0.88;;;;;;;;;;6319576;28;20235;-73
2022/09/19 10:48:22;;;;;;;3.65;1.02;;;;;;;;;;6317912;28;20047;-72
2022/09/19 10:51:29;;;;;;;3.55;1.45;;;;;;;;;;6316702;28;20093;-71
2022/09/19 10:54:36;;;;;;;4.80;1.10;;;;;;;;;;6317066;28;20063;-72
2022/09/19 10:57:44;;;;;;;11.35;1.33;;;;;;;;;;6311826;28;20060;-76
2022/09/19 11:00:51;;;;;;;2.00;0.80;;;;;;;;;;6312242;28;20072;-76
2022/09/19 11:04:00;;;;;;;7.38;1.00;;;;;;;;;;6311770;28;20044;-71
2022/09/19 11:07:03;;;;;;;2.17;1.15;;;;;;;;;;6318853;28;20231;-72
2022/09/19 11:10:32;;;;;;;6.70;1.38;;;;;;;;;;6317252;28;20052;-73
2022/09/19 11:13:39;;;;;;;2.80;1.10;;;;;;;;;;6316870;28;20076;-71
2022/09/19 11:16:55;;;;;;;3.72;0.88;;;;;;;;;;6313240;28;20075;-72
2022/09/19 11:20:16;;;;;;;8.75;1.05;;;;;;;;;;6311502;28;20259;-75
2022/09/19 11:23:44;;;;;;;2.30;0.70;;;;;;;;;;6313112;28;20044;-76
2022/09/19 11:27:01;;;;;;;8.05;1.30;;;;;;;;;;6299557;28;20048;-71
2022/09/19 11:30:12;;;;;;;8.60;1.50;;;;;;;;;;6311760;28;20270;-72
2022/09/19 11:33:38;;;;;;;6.32;1.00;;;;;;;;;;6315530;28;20107;-71
2022/09/19 11:36:50;;;;;;;4.82;0.90;;;;;;;;;;6321440;27;20044;-73
2022/09/19 11:40:04;;;;;;;2.20;0.80;;;;;;;;;;6318564;28;20059;-71
2022/09/19 11:43:17;;;;;;;1.85;0.70;;;;;;;;;;6319554;28;20377;-71
2022/09/19 11:46:31;;;;;;;4.05;1.17;;;;;;;;;;6321975;28;20048;-71
2022/09/19 11:50:04;;;;;;;3.05;0.90;;;;;;;;;;6323652;28;20169;-73
2022/09/19 11:53:21;;;;;;;4.78;1.27;;;;;;;;;;6321969;28;20052;-73
2022/09/19 11:56:40;;;;;;;10.90;1.13;;;;;;;;;;6319906;28;20109;-72
2022/09/19 11:59:54;;;;;;;1.20;0.82;;;;;;;;;;6317836;28;20056;-71
2022/09/19 12:03:16;;;;;;;7.00;1.05;;;;;;;;;;6321462;28;20335;-70
2022/09/19 12:06:28;;;;;;;2.30;0.75;;;;;;;;;;6319584;28;20073;-71
2022/09/19 12:09:34;;;;;;;5.72;1.30;;;;;;;;;;6324460;28;20052;-70
2022/09/19 12:12:39;;;;;;;7.50;0.73;;;;;;;;;;6323130;28;20060;-72
2022/09/19 12:15:45;;;;;;;4.47;0.88;;;;;;;;;;6322431;28;20066;-73
2022/09/19 12:18:52;;;;;;;4.78;1.02;;;;;;;;;;6324286;28;20074;-73
2022/09/19 12:21:56;;;;;;;2.88;0.88;;;;;;;;;;6321153;28;20040;-72
2022/09/19 12:25:06;;;;;;;2.22;0.77;;;;;;;;;;6318911;28;20243;-75
2022/09/19 12:28:10;;;;;;;3.15;0.70;;;;;;;;;;6317219;28;20053;-72
2022/09/19 12:31:13;;;;;;;2.20;0.88;;;;;;;;;;6321651;28;20071;-73
2022/09/19 12:34:29;;;;;;;2.53;0.80;;;;;;;;;;6316674;28;20051;-72
2022/09/19 12:37:37;;;;;;;2.85;0.70;;;;;;;;;;6319298;28;20284;-72
2022/09/19 12:40:43;;;;;;;20.15;1.40;;;;;;;;;;6317798;28;20239;-73
2022/09/19 12:43:53;;;;;;;9.18;1.10;;;;;;;;;;6317065;28;20258;-75
2022/09/19 12:47:00;;;;;;;3.00;0.60;;;;;;;;;;6317439;28;20051;-72
2022/09/19 12:50:15;;;;;;;4.25;0.65;;;;;;;;;;6320307;28;20332;-71
2022/09/19 12:53:25;;;;;;;0.68;0.45;;;;;;;;;;6318494;28;20341;-71
2022/09/19 12:56:30;;;;;;;2.58;0.60;;;;;;;;;;6321068;28;20044;-71
2022/09/19 12:59:35;;;;;;;1.35;0.70;;;;;;;;;;6324648;28;20313;-71
2022/09/19 13:02:43;;;;;;;2.67;1.17;;;;;;;;;;6323894;28;20295;-71
2022/09/19 13:05:49;;;;;;;2.28;0.60;;;;;;;;;;6317456;28;20311;-71
2022/09/19 13:08:53;;;;;;;1.73;0.70;;;;;;;;;;6315984;28;20060;-71
2022/09/19 13:11:59;;;;;;;7.78;0.90;;;;;;;;;;6319464;28;20037;-73
2022/09/19 13:15:05;;;;;;;1.00;0.60;;;;;;;;;;6319697;28;20342;-71
2022/09/19 13:24:57;;;;;;;1.20;0.70;;;;;;;;;;6321729;28;20144;-71
2022/09/19 13:28:25;;;;;;;1.40;0.82;;;;;;;;;;6318578;28;20062;-73
2022/09/19 13:31:32;;;;;;;4.10;0.82;;;;;;;;;;6319337;28;20075;-71
2022/09/19 13:34:38;;;;;;;1.38;0.70;;;;;;;;;;6320017;28;20235;-72
2022/09/19 13:37:58;;;;;;;3.72;0.88;;;;;;;;;;6322717;28;20258;-71
2022/09/19 13:41:04;;;;;;;2.30;0.80;;;;;;;;;;6316338;28;20059;-72
2022/09/19 13:44:14;;;;;;;6.90;0.90;;;;;;;;;;6313666;28;20260;-73
2022/09/19 13:47:22;;;;;;;3.08;0.70;;;;;;;;;;6316677;28;20056;-72
2022/09/19 13:50:27;;;;;;;2.10;0.60;;;;;;;;;;6314395;28;20060;-72
2022/09/19 13:53:33;;;;;;;3.15;0.82;;;;;;;;;;6322053;28;20056;-72
2022/09/19 13:56:36;;;;;;;3.72;0.70;;;;;;;;;;6320577;28;20089;-72
2022/09/19 13:59:39;;;;;;;3.95;1.00;;;;;;;;;;6318792;28;20101;-73
2022/09/19 14:02:42;;;;;;;5.53;1.10;;;;;;;;;;6318299;28;20064;-72
2022/09/19 14:05:44;;;;;;;4.38;1.20;;;;;;;;;;6316066;28;20060;-71
2022/09/19 14:08:48;;;;;;;5.70;1.67;;;;;;;;;;6316793;28;20377;-71
2022/09/19 14:11:50;;;;;;;3.00;0.82;;;;;;;;;;6317364;28;20056;-71
2022/09/19 14:14:54;;;;;;;1.55;0.85;;;;;;;;;;6319954;28;20043;-72
2022/09/19 14:18:03;;;;;;;;;;;;;;;;;;6317207;28;20048;-72
2022/09/19 14:21:06;;;;;;;6.03;1.10;;;;;;;;;;6311726;28;20738;-72
2022/09/19 14:24:17;;;;;;;1.75;0.90;;;;;;;;;;6317281;28;20829;-71
2022/09/19 14:27:46;;;;;;;0.95;0.70;;;;;;;;;;6317137;28;20056;-71
2022/09/19 14:31:10;;;;;;;5.07;0.98;;;;;;;;;;6316490;28;20066;-78
2022/09/19 14:34:49;;;;;;;3.10;0.70;;;;;;;;;;6317344;28;20079;-74
2022/09/19 14:38:12;;;;;;;10.77;1.10;;;;;;;;;;6280633;28;20044;-70
2022/09/19 14:41:18;;;;;;;16.25;1.63;;;;;;;;;;6323158;28;20116;-75
2022/09/19 14:44:55;;;;;;;25.15;2.10;;;;;;;;;;6322037;28;20219;-72
2022/09/19 14:48:01;;;;;;;25.88;1.83;;;;;;;;;;6317226;28;20048;-75
2022/09/19 14:51:14;;;;;;;36.53;3.30;;;;;;;;;;6317188;28;20052;-75
2022/09/19 14:54:20;;;;;;;8.07;0.90;;;;;;;;;;6317246;28;20075;-73
2022/09/19 14:57:24;;;;;;;40.65;3.38;;;;;;;;;;6317455;28;20110;-76
2022/09/19 15:00:28;;;;;;;13.45;1.58;;;;;;;;;;6317255;28;20036;-76
2022/09/19 15:03:30;;;;;;;20.50;1.65;;;;;;;;;;6320780;28;20288;-73
2022/09/19 15:06:33;;;;;;;43.22;3.83;;;;;;;;;;6321644;28;20052;-73
2022/09/19 15:09:36;;;;;;;50.75;3.78;;;;;;;;;;6327445;28;20400;-73
2022/09/19 15:12:40;;;;;;;5.55;0.90;;;;;;;;;;6322787;28;20052;-73
2022/09/19 15:15:42;;;;;;;112.80;7.45;;;;;;;;;;6324014;28;20142;-74
2022/09/19 15:18:45;;;;;;;38.85;2.78;;;;;;;;;;6325426;28;20067;-75
2022/09/19 15:21:49;;;;;;;19.17;1.90;;;;;;;;;;6326919;28;20051;-74
2022/09/19 15:24:52;;;;;;;47.80;3.20;;;;;;;;;;6324433;28;20123;-73
2022/09/19 15:27:57;;;;;;;24.20;1.90;;;;;;;;;;6323980;28;20092;-74
2022/09/19 15:30:59;;;;;;;52.63;4.00;;;;;;;;;;6320971;28;20060;-74
2022/09/19 15:34:03;;;;;;;9.40;1.42;;;;;;;;;;6325377;28;20048;-74
2022/09/19 15:37:05;;;;;;;65.75;5.40;;;;;;;;;;6327070;28;20048;-73
2022/09/19 15:40:11;;;;;;;93.75;6.40;;;;;;;;;;6325984;27;20147;-72
2022/09/19 15:43:15;;;;;;;59.88;5.07;;;;;;;;;;6323328;28;20064;-72
2022/09/19 15:46:43;;;;;;;40.50;2.85;;;;;;;;;;6324213;27;20047;-72
2022/09/19 15:49:48;;;;;;;18.65;1.92;;;;;;;;;;6325083;28;20165;-72
2022/09/19 15:52:50;;;;;;;47.17;3.00;;;;;;;;;;6323810;28;20105;-72
2022/09/19 15:56:00;;;;;;;50.17;3.58;;;;;;;;;;6327520;28;20081;-72
2022/09/19 15:59:03;;;;;;;75.13;6.85;;;;;;;;;;6320969;28;20089;-75
2022/09/19 16:02:07;;;;;;;42.08;3.65;;;;;;;;;;6324348;28;20115;-72
2022/09/19 16:05:18;;;;;;;53.58;5.07;;;;;;;;;;6324428;28;20454;-72
2022/09/19 16:11:44;;;;;;;118.00;8.48;;;;;;;;;;6315856;28;20227;-72
2022/09/19 16:14:54;;;;;;;52.03;4.00;;;;;;;;;;6315343;28;20113;-72
2022/09/19 16:18:15;;;;;;;78.45;4.70;;;;;;;;;;6315933;28;20075;-72
2022/09/19 16:21:17;;;;;;;66.47;5.10;;;;;;;;;;6316365;28;20056;-70
2022/09/19 16:24:20;;;;;;;;;;;;;;;;;;6316357;27;20093;-70
2022/09/19 16:27:25;;;;;;;32.97;3.05;;;;;;;;;;6314340;28;19916;-70
2022/09/19 16:30:28;;;;;;;99.18;7.88;;;;;;;;;;6314779;28;20036;-71
2022/09/19 16:33:33;;;;;;;133.20;10.35;;;;;;;;;;6314737;28;20123;-70
2022/09/19 16:36:41;;;;;;;68.20;5.97;;;;;;;;;;6317628;28;20393;-74
2022/09/19 16:39:46;;;;;;;83.57;7.38;;;;;;;;;;6322964;28;20049;-77
2022/09/19 16:42:48;;;;;;;56.75;5.50;;;;;;;;;;6322025;28;20104;-72
2022/09/19 16:45:51;;;;;;;91.78;7.05;;;;;;;;;;6323260;28;20307;-71
2022/09/19 16:48:52;;;;;;;64.10;5.32;;;;;;;;;;6320723;28;20107;-72
2022/09/19 16:51:55;;;;;;;35.72;3.03;;;;;;;;;;6316486;28;20151;-72
2022/09/19 16:54:58;;;;;;;33.38;2.10;;;;;;;;;;6316040;28;20067;-72
2022/09/19 16:58:00;;;;;;;29.65;2.20;;;;;;;;;;6314501;28;20352;-71
2022/09/19 17:01:03;;;;;;;23.70;1.80;;;;;;;;;;6313199;28;20105;-71
2022/09/19 17:04:05;;;;;;;23.15;2.13;;;;;;;;;;6313503;28;20044;-71
2022/09/19 17:07:10;;;;;;;48.30;3.20;;;;;;;;;;6309329;27;20145;-71
2022/09/19 17:10:12;;;;;;;45.15;3.78;;;;;;;;;;6317550;28;20101;-72
2022/09/19 17:13:14;;;;;;;18.80;2.05;;;;;;;;;;6313415;28;20105;-69
2022/09/19 17:16:19;;;;;;;25.50;2.25;;;;;;;;;;6314498;28;20225;-73
2022/09/19 17:19:21;;;;;;;36.58;3.33;;;;;;;;;;6318352;28;20085;-72
2022/09/19 17:22:23;;;;;;;20.57;2.07;;;;;;;;;;6314263;28;20055;-71
2022/09/19 17:25:29;;;;;;;22.30;1.98;;;;;;;;;;6312595;28;20493;-71
2022/09/19 17:28:31;;;;;;;13.48;1.80;;;;;;;;;;6315706;28;20052;-69
2022/09/19 17:31:34;;;;;;;6.38;1.10;;;;;;;;;;6315426;28;20055;-68
2022/09/19 17:34:36;;;;;;;6.03;1.25;;;;;;;;;;6314691;28;20090;-70
2022/09/19 17:37:37;;;;;;;8.05;1.00;;;;;;;;;;6312888;28;20327;-70
2022/09/19 17:40:41;;;;;;;8.02;1.23;;;;;;;;;;6314902;28;20321;-69
2022/09/19 17:43:44;;;;;;;3.95;1.02;;;;;;;;;;6311003;28;20053;-70
2022/09/19 17:46:47;;;;;;;6.18;3.35;;;;;;;;;;6316683;28;20052;-70
2022/09/19 17:49:48;;;;;;;3.35;2.30;;;;;;;;;;6318501;28;20048;-73
2022/09/19 17:52:50;;;;;;;16.27;7.50;;;;;;;;;;6318177;28;20105;-71
2022/09/19 17:55:52;;;;;;;13.02;7.43;;;;;;;;;;6318133;28;20059;-68
2022/09/19 17:58:55;;;;;;;7.38;3.42;;;;;;;;;;6312137;28;20353;-70
2022/09/19 18:05:22;;;;;;;11.00;2.35;;;;;;;;;;6315143;28;20071;-71
2022/09/19 18:08:24;;;;;;;3.88;1.90;;;;;;;;;;6311006;28;20309;-70
2022/09/19 18:11:27;;;;;;;6.50;1.55;;;;;;;;;;6313014;28;20090;-74
2022/09/19 18:14:29;;;;;;;6.80;1.77;;;;;;;;;;6310626;28;20481;-73
2022/09/19 18:17:33;;;;;;;4.55;1.20;;;;;;;;;;6320415;28;20047;-73
2022/09/19 18:20:35;;;;;;;9.05;1.30;;;;;;;;;;6320450;28;20442;-71
2022/09/19 18:23:40;;;;;;;8.30;1.45;;;;;;;;;;6321662;28;20093;-70
2022/09/19 18:26:42;;;;;;;4.22;1.50;;;;;;;;;;6318944;28;20060;-70
2022/09/19 18:29:43;;;;;;;4.78;2.17;;;;;;;;;;6323132;28;20059;-70
2022/09/19 18:32:47;;;;;;;4.47;1.30;;;;;;;;;;6317780;28;20124;-70
2022/09/19 18:35:49;;;;;;;5.22;1.30;;;;;;;;;;6320284;28;20056;-69
2022/09/19 18:38:52;;;;;;;3.72;1.52;;;;;;;;;;6319448;28;20106;-71
2022/09/19 18:41:54;;;;;;;6.30;1.35;;;;;;;;;;6323061;28;20056;-72
2022/09/19 18:44:56;;;;;;;2.30;0.98;;;;;;;;;;6320916;28;20067;-70
2022/09/19 18:47:59;;;;;;;3.40;1.50;;;;;;;;;;6322644;28;20060;-73
2022/09/19 18:51:01;;;;;;;1.92;1.33;;;;;;;;;;6324797;28;20052;-73
2022/09/19 18:54:02;;;;;;;5.05;1.15;;;;;;;;;;6321746;28;20060;-68
2022/09/19 18:57:04;;;;;;;4.65;1.48;;;;;;;;;;6323563;28;20055;-73
2022/09/19 19:00:06;;;;;;;3.08;1.48;;;;;;;;;;6323379;27;20072;-73
2022/09/19 19:03:11;;;;;;;5.63;1.70;;;;;;;;;;6326350;28;20371;-72